sensor_id;sensor_type;location;lat;lon;timestamp;P1;durP1;ratioP1;P2;durP2;ratioP2
29712;SDS011;16623;53.632;10.016;2023-11-19T00:01:48;11.27;;;6.97;;
29712;SDS011;16623;53.632;10.016;2023-11-19T00:04:14;9.88;;;5.78;;
29712;SDS011;16623;53.632;10.016;2023-11-19T00:06:39;10.93;;;6.00;;
29712;SDS011;16623;53.632;10.016;2023-11-19T00:09:05;9.77;;;5.97;;
29712;SDS011;16623;53.632;10.016;2023-11-19T00:11:33;15.27;;;6.30;;
29712;SDS011;16623;53.632;10.016;2023-11-19T00:13:58;10.63;;;5.53;;
29712;SDS011;16623;53.632;10.016;2023-11-19T00:16:24;8.93;;;5.53;;
29712;SDS011;16623;53.632;10.016;2023-11-19T00:18:49;8.80;;;5.47;;
29712;SDS011;16623;53.632;10.016;2023-11-19T00:21:15;7.75;;;4.88;;
29712;SDS011;16623;53.632;10.016;2023-11-19T00:23:41;7.93;;;5.50;;
29712;SDS011;16623;53.632;10.016;2023-11-19T00:26:06;8.30;;;4.72;;
29712;SDS011;16623;53.632;10.016;2023-11-19T00:28:32;7.93;;;5.00;;
29712;SDS011;16623;53.632;10.016;2023-11-19T00:30:59;8.65;;;4.80;;
29712;SDS011;16623;53.632;10.016;2023-11-19T00:33:24;10.68;;;4.57;;
29712;SDS011;16623;53.632;10.016;2023-11-19T00:35:50;8.40;;;4.88;;
29712;SDS011;16623;53.632;10.016;2023-11-19T00:38:15;6.30;;;4.20;;
29712;SDS011;16623;53.632;10.016;2023-11-19T00:40:41;5.63;;;4.07;;
29712;SDS011;16623;53.632;10.016;2023-11-19T00:43:07;7.40;;;4.45;;
29712;SDS011;16623;53.632;10.016;2023-11-19T00:45:32;8.13;;;3.90;;
29712;SDS011;16623;53.632;10.016;2023-11-19T00:47:58;7.30;;;4.18;;
29712;SDS011;16623;53.632;10.016;2023-11-19T00:50:24;5.38;;;3.58;;
29712;SDS011;16623;53.632;10.016;2023-11-19T00:52:50;6.15;;;4.00;;
29712;SDS011;16623;53.632;10.016;2023-11-19T00:55:16;5.45;;;3.97;;
29712;SDS011;16623;53.632;10.016;2023-11-19T00:57:42;9.18;;;4.05;;
29712;SDS011;16623;53.632;10.016;2023-11-19T01:00:08;5.57;;;3.17;;
29712;SDS011;16623;53.632;10.016;2023-11-19T01:02:43;4.32;;;2.95;;
29712;SDS011;16623;53.632;10.016;2023-11-19T01:05:10;5.80;;;3.38;;
29712;SDS011;16623;53.632;10.016;2023-11-19T01:07:38;4.55;;;3.47;;
29712;SDS011;16623;53.632;10.016;2023-11-19T01:10:05;4.68;;;2.58;;
29712;SDS011;16623;53.632;10.016;2023-11-19T01:12:32;5.60;;;2.92;;
29712;SDS011;16623;53.632;10.016;2023-11-19T01:14:57;3.72;;;2.88;;
29712;SDS011;16623;53.632;10.016;2023-11-19T01:17:23;4.22;;;2.97;;
29712;SDS011;16623;53.632;10.016;2023-11-19T01:19:49;4.63;;;3.20;;
29712;SDS011;16623;53.632;10.016;2023-11-19T01:22:15;4.82;;;4.35;;
29712;SDS011;16623;53.632;10.016;2023-11-19T01:24:43;3.75;;;2.80;;
29712;SDS011;16623;53.632;10.016;2023-11-19T01:27:09;4.55;;;2.88;;
29712;SDS011;16623;53.632;10.016;2023-11-19T01:29:35;5.20;;;2.40;;
29712;SDS011;16623;53.632;10.016;2023-11-19T01:32:00;3.25;;;2.35;;
29712;SDS011;16623;53.632;10.016;2023-11-19T01:34:26;2.22;;;2.03;;
29712;SDS011;16623;53.632;10.016;2023-11-19T01:36:51;3.70;;;2.33;;
29712;SDS011;16623;53.632;10.016;2023-11-19T01:39:18;2.92;;;2.13;;
29712;SDS011;16623;53.632;10.016;2023-11-19T01:41:44;2.83;;;2.03;;
29712;SDS011;16623;53.632;10.016;2023-11-19T01:44:10;2.63;;;1.98;;
29712;SDS011;16623;53.632;10.016;2023-11-19T01:46:37;2.15;;;1.83;;
29712;SDS011;16623;53.632;10.016;2023-11-19T01:49:05;3.53;;;2.30;;
29712;SDS011;16623;53.632;10.016;2023-11-19T01:51:31;3.55;;;2.00;;
29712;SDS011;16623;53.632;10.016;2023-11-19T01:53:57;2.30;;;1.75;;
29712;SDS011;16623;53.632;10.016;2023-11-19T01:56:24;2.38;;;1.88;;
29712;SDS011;16623;53.632;10.016;2023-11-19T01:58:51;3.45;;;2.22;;
29712;SDS011;16623;53.632;10.016;2023-11-19T02:01:19;2.70;;;1.90;;
29712;SDS011;16623;53.632;10.016;2023-11-19T02:03:44;3.10;;;1.95;;
29712;SDS011;16623;53.632;10.016;2023-11-19T02:06:12;2.78;;;1.88;;
29712;SDS011;16623;53.632;10.016;2023-11-19T02:08:38;2.03;;;1.83;;
29712;SDS011;16623;53.632;10.016;2023-11-19T02:11:04;2.35;;;1.73;;
29712;SDS011;16623;53.632;10.016;2023-11-19T02:13:31;2.22;;;1.80;;
29712;SDS011;16623;53.632;10.016;2023-11-19T02:15:57;3.40;;;1.80;;
29712;SDS011;16623;53.632;10.016;2023-11-19T02:18:25;1.40;;;1.30;;
29712;SDS011;16623;53.632;10.016;2023-11-19T02:20:55;2.50;;;1.40;;
29712;SDS011;16623;53.632;10.016;2023-11-19T02:23:21;2.80;;;2.28;;
29712;SDS011;16623;53.632;10.016;2023-11-19T02:25:50;1.85;;;1.45;;
29712;SDS011;16623;53.632;10.016;2023-11-19T02:28:19;2.40;;;1.48;;
29712;SDS011;16623;53.632;10.016;2023-11-19T02:30:45;3.45;;;1.20;;
29712;SDS011;16623;53.632;10.016;2023-11-19T02:33:11;2.35;;;1.60;;
29712;SDS011;16623;53.632;10.016;2023-11-19T02:35:38;1.60;;;1.45;;
29712;SDS011;16623;53.632;10.016;2023-11-19T02:38:05;2.05;;;1.50;;
29712;SDS011;16623;53.632;10.016;2023-11-19T02:40:31;1.88;;;1.52;;
29712;SDS011;16623;53.632;10.016;2023-11-19T02:42:57;2.08;;;1.45;;
29712;SDS011;16623;53.632;10.016;2023-11-19T02:45:23;4.70;;;1.38;;
29712;SDS011;16623;53.632;10.016;2023-11-19T02:47:50;1.30;;;1.20;;
29712;SDS011;16623;53.632;10.016;2023-11-19T02:50:17;1.95;;;1.63;;
29712;SDS011;16623;53.632;10.016;2023-11-19T02:52:50;1.77;;;1.63;;
29712;SDS011;16623;53.632;10.016;2023-11-19T02:55:17;1.90;;;1.50;;
29712;SDS011;16623;53.632;10.016;2023-11-19T02:57:43;1.45;;;1.30;;
29712;SDS011;16623;53.632;10.016;2023-11-19T03:00:20;1.98;;;1.77;;
29712;SDS011;16623;53.632;10.016;2023-11-19T03:02:50;1.92;;;1.50;;
29712;SDS011;16623;53.632;10.016;2023-11-19T03:05:24;2.13;;;1.70;;
29712;SDS011;16623;53.632;10.016;2023-11-19T03:07:51;1.80;;;1.40;;
29712;SDS011;16623;53.632;10.016;2023-11-19T03:10:17;2.05;;;1.83;;
29712;SDS011;16623;53.632;10.016;2023-11-19T03:12:43;1.67;;;1.35;;
29712;SDS011;16623;53.632;10.016;2023-11-19T03:15:10;5.05;;;1.80;;
29712;SDS011;16623;53.632;10.016;2023-11-19T03:17:38;3.00;;;1.77;;
29712;SDS011;16623;53.632;10.016;2023-11-19T03:20:05;2.40;;;2.15;;
29712;SDS011;16623;53.632;10.016;2023-11-19T03:22:34;2.17;;;1.85;;
29712;SDS011;16623;53.632;10.016;2023-11-19T03:25:01;2.42;;;2.05;;
29712;SDS011;16623;53.632;10.016;2023-11-19T03:27:27;2.33;;;2.08;;
29712;SDS011;16623;53.632;10.016;2023-11-19T03:29:52;2.60;;;2.00;;
29712;SDS011;16623;53.632;10.016;2023-11-19T03:32:18;2.42;;;2.08;;
29712;SDS011;16623;53.632;10.016;2023-11-19T03:34:44;2.03;;;1.70;;
29712;SDS011;16623;53.632;10.016;2023-11-19T03:37:10;2.22;;;2.00;;
29712;SDS011;16623;53.632;10.016;2023-11-19T03:39:35;3.35;;;2.63;;
29712;SDS011;16623;53.632;10.016;2023-11-19T03:42:02;2.40;;;2.20;;
29712;SDS011;16623;53.632;10.016;2023-11-19T03:44:28;3.75;;;2.63;;
29712;SDS011;16623;53.632;10.016;2023-11-19T03:46:54;2.53;;;2.33;;
29712;SDS011;16623;53.632;10.016;2023-11-19T03:52:42;2.85;;;2.50;;
29712;SDS011;16623;53.632;10.016;2023-11-19T03:55:08;3.97;;;2.38;;
29712;SDS011;16623;53.632;10.016;2023-11-19T03:57:34;3.63;;;2.78;;
29712;SDS011;16623;53.632;10.016;2023-11-19T04:00:00;3.20;;;2.78;;
29712;SDS011;16623;53.632;10.016;2023-11-19T04:02:33;2.60;;;2.40;;
29712;SDS011;16623;53.632;10.016;2023-11-19T04:04:59;3.53;;;3.10;;
29712;SDS011;16623;53.632;10.016;2023-11-19T04:07:24;5.18;;;3.70;;
29712;SDS011;16623;53.632;10.016;2023-11-19T04:09:50;4.82;;;3.60;;
29712;SDS011;16623;53.632;10.016;2023-11-19T04:12:15;6.90;;;3.80;;
29712;SDS011;16623;53.632;10.016;2023-11-19T04:14:41;4.25;;;3.47;;
29712;SDS011;16623;53.632;10.016;2023-11-19T04:17:06;5.95;;;4.50;;
29712;SDS011;16623;53.632;10.016;2023-11-19T04:19:32;7.07;;;4.70;;
29712;SDS011;16623;53.632;10.016;2023-11-19T04:21:58;5.55;;;3.75;;
29712;SDS011;16623;53.632;10.016;2023-11-19T04:24:23;5.47;;;4.47;;
29712;SDS011;16623;53.632;10.016;2023-11-19T04:26:49;4.70;;;3.83;;
29712;SDS011;16623;53.632;10.016;2023-11-19T04:29:15;5.72;;;4.47;;
29712;SDS011;16623;53.632;10.016;2023-11-19T04:31:42;6.10;;;4.30;;
29712;SDS011;16623;53.632;10.016;2023-11-19T04:34:09;5.28;;;4.28;;
29712;SDS011;16623;53.632;10.016;2023-11-19T04:36:35;8.25;;;4.10;;
29712;SDS011;16623;53.632;10.016;2023-11-19T04:39:02;7.07;;;5.03;;
29712;SDS011;16623;53.632;10.016;2023-11-19T04:41:30;10.65;;;5.90;;
29712;SDS011;16623;53.632;10.016;2023-11-19T04:43:56;7.53;;;5.32;;
29712;SDS011;16623;53.632;10.016;2023-11-19T04:46:22;9.27;;;6.22;;
29712;SDS011;16623;53.632;10.016;2023-11-19T04:48:49;8.35;;;6.07;;
29712;SDS011;16623;53.632;10.016;2023-11-19T04:51:15;8.48;;;6.40;;
29712;SDS011;16623;53.632;10.016;2023-11-19T04:53:40;11.35;;;7.47;;
29712;SDS011;16623;53.632;10.016;2023-11-19T04:56:12;10.00;;;6.82;;
29712;SDS011;16623;53.632;10.016;2023-11-19T04:58:38;11.95;;;7.25;;
29712;SDS011;16623;53.632;10.016;2023-11-19T05:01:04;13.07;;;7.70;;
29712;SDS011;16623;53.632;10.016;2023-11-19T05:03:33;12.15;;;7.43;;
29712;SDS011;16623;53.632;10.016;2023-11-19T05:05:58;12.98;;;7.90;;
29712;SDS011;16623;53.632;10.016;2023-11-19T05:08:24;12.13;;;7.47;;
29712;SDS011;16623;53.632;10.016;2023-11-19T05:10:50;10.05;;;7.15;;
29712;SDS011;16623;53.632;10.016;2023-11-19T05:13:15;10.48;;;7.63;;
29712;SDS011;16623;53.632;10.016;2023-11-19T05:15:42;12.95;;;8.25;;
29712;SDS011;16623;53.632;10.016;2023-11-19T05:18:07;13.15;;;7.80;;
29712;SDS011;16623;53.632;10.016;2023-11-19T05:20:33;15.95;;;7.50;;
29712;SDS011;16623;53.632;10.016;2023-11-19T05:22:59;14.93;;;8.50;;
29712;SDS011;16623;53.632;10.016;2023-11-19T05:25:26;13.73;;;7.88;;
29712;SDS011;16623;53.632;10.016;2023-11-19T05:27:52;12.23;;;8.75;;
29712;SDS011;16623;53.632;10.016;2023-11-19T05:30:17;13.95;;;9.43;;
29712;SDS011;16623;53.632;10.016;2023-11-19T05:32:43;15.45;;;8.98;;
29712;SDS011;16623;53.632;10.016;2023-11-19T05:35:09;11.43;;;7.78;;
29712;SDS011;16623;53.632;10.016;2023-11-19T05:37:34;12.48;;;8.38;;
29712;SDS011;16623;53.632;10.016;2023-11-19T05:40:01;18.77;;;9.00;;
29712;SDS011;16623;53.632;10.016;2023-11-19T05:42:28;13.45;;;8.02;;
29712;SDS011;16623;53.632;10.016;2023-11-19T05:44:54;13.48;;;8.70;;
29712;SDS011;16623;53.632;10.016;2023-11-19T05:47:19;13.68;;;8.18;;
29712;SDS011;16623;53.632;10.016;2023-11-19T05:49:45;14.05;;;8.20;;
29712;SDS011;16623;53.632;10.016;2023-11-19T05:52:11;16.80;;;9.13;;
29712;SDS011;16623;53.632;10.016;2023-11-19T05:54:37;18.90;;;9.73;;
29712;SDS011;16623;53.632;10.016;2023-11-19T05:57:06;22.25;;;10.25;;
29712;SDS011;16623;53.632;10.016;2023-11-19T05:59:35;22.10;;;9.85;;
29712;SDS011;16623;53.632;10.016;2023-11-19T06:02:02;18.05;;;9.93;;
29712;SDS011;16623;53.632;10.016;2023-11-19T06:04:28;22.85;;;11.00;;
29712;SDS011;16623;53.632;10.016;2023-11-19T06:06:54;21.15;;;10.23;;
29712;SDS011;16623;53.632;10.016;2023-11-19T06:09:22;22.65;;;12.48;;
29712;SDS011;16623;53.632;10.016;2023-11-19T06:11:48;21.08;;;12.05;;
29712;SDS011;16623;53.632;10.016;2023-11-19T06:14:18;19.00;;;11.27;;
29712;SDS011;16623;53.632;10.016;2023-11-19T06:16:43;25.83;;;13.20;;
29712;SDS011;16623;53.632;10.016;2023-11-19T06:19:09;23.58;;;12.65;;
29712;SDS011;16623;53.632;10.016;2023-11-19T06:21:36;30.75;;;12.82;;
29712;SDS011;16623;53.632;10.016;2023-11-19T06:24:02;30.30;;;13.82;;
29712;SDS011;16623;53.632;10.016;2023-11-19T06:26:28;29.60;;;13.77;;
29712;SDS011;16623;53.632;10.016;2023-11-19T06:28:54;28.73;;;12.57;;
29712;SDS011;16623;53.632;10.016;2023-11-19T06:31:22;40.03;;;14.30;;
29712;SDS011;16623;53.632;10.016;2023-11-19T06:33:48;25.45;;;13.00;;
29712;SDS011;16623;53.632;10.016;2023-11-19T06:36:14;31.00;;;13.90;;
29712;SDS011;16623;53.632;10.016;2023-11-19T06:38:41;38.90;;;13.60;;
29712;SDS011;16623;53.632;10.016;2023-11-19T06:41:07;29.38;;;12.43;;
29712;SDS011;16623;53.632;10.016;2023-11-19T06:43:34;35.22;;;11.85;;
29712;SDS011;16623;53.632;10.016;2023-11-19T06:46:00;40.45;;;12.23;;
29712;SDS011;16623;53.632;10.016;2023-11-19T06:48:26;35.42;;;11.52;;
29712;SDS011;16623;53.632;10.016;2023-11-19T06:50:52;48.53;;;12.15;;
29712;SDS011;16623;53.632;10.016;2023-11-19T06:53:18;35.42;;;14.00;;
29712;SDS011;16623;53.632;10.016;2023-11-19T06:55:44;29.02;;;10.20;;
29712;SDS011;16623;53.632;10.016;2023-11-19T06:58:10;28.23;;;10.27;;
29712;SDS011;16623;53.632;10.016;2023-11-19T07:00:37;27.35;;;9.82;;
29712;SDS011;16623;53.632;10.016;2023-11-19T07:03:03;33.25;;;9.18;;
29712;SDS011;16623;53.632;10.016;2023-11-19T07:05:28;31.17;;;8.23;;
29712;SDS011;16623;53.632;10.016;2023-11-19T07:07:55;23.63;;;8.45;;
29712;SDS011;16623;53.632;10.016;2023-11-19T07:10:21;25.95;;;8.32;;
29712;SDS011;16623;53.632;10.016;2023-11-19T07:12:46;29.77;;;7.22;;
29712;SDS011;16623;53.632;10.016;2023-11-19T07:15:12;35.05;;;8.43;;
29712;SDS011;16623;53.632;10.016;2023-11-19T07:17:39;25.88;;;7.60;;
29712;SDS011;16623;53.632;10.016;2023-11-19T07:20:05;20.70;;;6.88;;
29712;SDS011;16623;53.632;10.016;2023-11-19T07:22:31;27.63;;;6.88;;
29712;SDS011;16623;53.632;10.016;2023-11-19T07:24:56;40.78;;;7.85;;
29712;SDS011;16623;53.632;10.016;2023-11-19T07:27:23;43.65;;;7.35;;
29712;SDS011;16623;53.632;10.016;2023-11-19T07:29:49;27.27;;;7.13;;
29712;SDS011;16623;53.632;10.016;2023-11-19T07:32:15;25.27;;;5.18;;
29712;SDS011;16623;53.632;10.016;2023-11-19T07:34:40;30.10;;;5.30;;
29712;SDS011;16623;53.632;10.016;2023-11-19T07:37:06;32.40;;;6.63;;
29712;SDS011;16623;53.632;10.016;2023-11-19T07:39:32;13.15;;;4.10;;
29712;SDS011;16623;53.632;10.016;2023-11-19T07:41:58;25.50;;;4.75;;
29712;SDS011;16623;53.632;10.016;2023-11-19T07:44:23;27.58;;;5.07;;
29712;SDS011;16623;53.632;10.016;2023-11-19T07:46:49;23.10;;;5.63;;
29712;SDS011;16623;53.632;10.016;2023-11-19T07:49:15;38.03;;;4.90;;
29712;SDS011;16623;53.632;10.016;2023-11-19T07:51:41;27.60;;;3.97;;
29712;SDS011;16623;53.632;10.016;2023-11-19T07:54:06;21.58;;;4.43;;
29712;SDS011;16623;53.632;10.016;2023-11-19T07:56:33;27.35;;;4.85;;
29712;SDS011;16623;53.632;10.016;2023-11-19T07:59:02;24.48;;;4.50;;
29712;SDS011;16623;53.632;10.016;2023-11-19T08:01:28;27.45;;;4.82;;
29712;SDS011;16623;53.632;10.016;2023-11-19T08:03:53;26.73;;;4.78;;
29712;SDS011;16623;53.632;10.016;2023-11-19T08:06:19;29.67;;;4.55;;
29712;SDS011;16623;53.632;10.016;2023-11-19T08:08:45;29.02;;;4.35;;
29712;SDS011;16623;53.632;10.016;2023-11-19T08:11:12;29.67;;;4.97;;
29712;SDS011;16623;53.632;10.016;2023-11-19T08:13:38;37.33;;;5.32;;
29712;SDS011;16623;53.632;10.016;2023-11-19T08:16:04;38.15;;;5.10;;
29712;SDS011;16623;53.632;10.016;2023-11-19T08:18:31;29.05;;;4.75;;
29712;SDS011;16623;53.632;10.016;2023-11-19T08:20:56;34.58;;;4.47;;
29712;SDS011;16623;53.632;10.016;2023-11-19T08:23:24;36.17;;;6.47;;
29712;SDS011;16623;53.632;10.016;2023-11-19T08:25:50;35.25;;;5.30;;
29712;SDS011;16623;53.632;10.016;2023-11-19T08:28:16;41.42;;;6.07;;
29712;SDS011;16623;53.632;10.016;2023-11-19T08:30:41;40.75;;;5.47;;
29712;SDS011;16623;53.632;10.016;2023-11-19T08:33:09;26.55;;;4.45;;
29712;SDS011;16623;53.632;10.016;2023-11-19T08:35:35;37.20;;;5.88;;
29712;SDS011;16623;53.632;10.016;2023-11-19T08:38:01;26.60;;;4.90;;
29712;SDS011;16623;53.632;10.016;2023-11-19T08:40:27;34.47;;;5.15;;
29712;SDS011;16623;53.632;10.016;2023-11-19T08:42:53;27.02;;;4.25;;
29712;SDS011;16623;53.632;10.016;2023-11-19T08:45:19;36.22;;;5.43;;
29712;SDS011;16623;53.632;10.016;2023-11-19T08:47:44;39.05;;;4.32;;
29712;SDS011;16623;53.632;10.016;2023-11-19T08:50:10;22.35;;;3.88;;
29712;SDS011;16623;53.632;10.016;2023-11-19T08:52:37;30.67;;;5.22;;
29712;SDS011;16623;53.632;10.016;2023-11-19T08:55:06;31.60;;;5.57;;
29712;SDS011;16623;53.632;10.016;2023-11-19T08:57:31;32.25;;;4.30;;
29712;SDS011;16623;53.632;10.016;2023-11-19T09:00:00;29.77;;;5.28;;
29712;SDS011;16623;53.632;10.016;2023-11-19T09:02:26;30.05;;;6.07;;
29712;SDS011;16623;53.632;10.016;2023-11-19T09:04:51;36.05;;;6.32;;
29712;SDS011;16623;53.632;10.016;2023-11-19T09:07:17;35.75;;;6.22;;
29712;SDS011;16623;53.632;10.016;2023-11-19T09:09:43;32.35;;;6.47;;
29712;SDS011;16623;53.632;10.016;2023-11-19T09:12:08;32.63;;;6.70;;
29712;SDS011;16623;53.632;10.016;2023-11-19T09:14:34;21.38;;;4.43;;
29712;SDS011;16623;53.632;10.016;2023-11-19T09:17:00;34.90;;;4.57;;
29712;SDS011;16623;53.632;10.016;2023-11-19T09:19:25;27.65;;;5.75;;
29712;SDS011;16623;53.632;10.016;2023-11-19T09:21:51;31.42;;;5.10;;
29712;SDS011;16623;53.632;10.016;2023-11-19T09:24:18;44.92;;;6.32;;
29712;SDS011;16623;53.632;10.016;2023-11-19T09:26:43;31.80;;;4.75;;
29712;SDS011;16623;53.632;10.016;2023-11-19T09:29:09;29.25;;;6.28;;
29712;SDS011;16623;53.632;10.016;2023-11-19T09:31:35;28.45;;;5.53;;
29712;SDS011;16623;53.632;10.016;2023-11-19T09:34:03;36.10;;;6.25;;
29712;SDS011;16623;53.632;10.016;2023-11-19T09:36:28;34.42;;;5.40;;
29712;SDS011;16623;53.632;10.016;2023-11-19T09:38:54;31.65;;;4.68;;
29712;SDS011;16623;53.632;10.016;2023-11-19T09:41:19;27.48;;;5.07;;
29712;SDS011;16623;53.632;10.016;2023-11-19T09:43:45;39.30;;;4.65;;
29712;SDS011;16623;53.632;10.016;2023-11-19T09:46:12;45.28;;;6.32;;
29712;SDS011;16623;53.632;10.016;2023-11-19T09:48:40;34.30;;;5.45;;
29712;SDS011;16623;53.632;10.016;2023-11-19T09:51:07;36.90;;;5.53;;
29712;SDS011;16623;53.632;10.016;2023-11-19T09:53:34;30.85;;;4.40;;
29712;SDS011;16623;53.632;10.016;2023-11-19T09:56:01;43.28;;;6.93;;
29712;SDS011;16623;53.632;10.016;2023-11-19T09:58:31;27.23;;;4.40;;
29712;SDS011;16623;53.632;10.016;2023-11-19T10:01:00;39.33;;;5.25;;
29712;SDS011;16623;53.632;10.016;2023-11-19T10:03:35;31.98;;;5.78;;
29712;SDS011;16623;53.632;10.016;2023-11-19T10:06:07;23.60;;;4.60;;
29712;SDS011;16623;53.632;10.016;2023-11-19T10:08:34;42.55;;;5.82;;
29712;SDS011;16623;53.632;10.016;2023-11-19T10:11:02;25.27;;;4.40;;
29712;SDS011;16623;53.632;10.016;2023-11-19T10:13:28;33.70;;;4.82;;
29712;SDS011;16623;53.632;10.016;2023-11-19T10:15:55;27.80;;;4.32;;
29712;SDS011;16623;53.632;10.016;2023-11-19T10:18:25;36.92;;;6.63;;
29712;SDS011;16623;53.632;10.016;2023-11-19T10:20:51;35.88;;;4.80;;
29712;SDS011;16623;53.632;10.016;2023-11-19T10:23:18;34.50;;;4.85;;
29712;SDS011;16623;53.632;10.016;2023-11-19T10:25:44;36.92;;;5.47;;
29712;SDS011;16623;53.632;10.016;2023-11-19T10:28:10;24.10;;;5.57;;
29712;SDS011;16623;53.632;10.016;2023-11-19T10:30:37;34.97;;;5.72;;
29712;SDS011;16623;53.632;10.016;2023-11-19T10:33:13;32.35;;;5.63;;
29712;SDS011;16623;53.632;10.016;2023-11-19T10:38:21;27.13;;;4.85;;
29712;SDS011;16623;53.632;10.016;2023-11-19T10:40:48;28.15;;;5.20;;
29712;SDS011;16623;53.632;10.016;2023-11-19T10:43:15;25.73;;;3.95;;
29712;SDS011;16623;53.632;10.016;2023-11-19T10:45:42;24.00;;;5.30;;
29712;SDS011;16623;53.632;10.016;2023-11-19T10:48:08;31.27;;;4.53;;
29712;SDS011;16623;53.632;10.016;2023-11-19T10:50:34;29.73;;;5.25;;
29712;SDS011;16623;53.632;10.016;2023-11-19T10:53:01;17.10;;;3.55;;
29712;SDS011;16623;53.632;10.016;2023-11-19T10:55:29;33.67;;;5.07;;
29712;SDS011;16623;53.632;10.016;2023-11-19T10:57:58;24.17;;;4.43;;
29712;SDS011;16623;53.632;10.016;2023-11-19T11:00:29;24.60;;;4.93;;
29712;SDS011;16623;53.632;10.016;2023-11-19T11:03:00;27.75;;;4.57;;
29712;SDS011;16623;53.632;10.016;2023-11-19T11:05:32;40.17;;;4.82;;
29712;SDS011;16623;53.632;10.016;2023-11-19T11:07:59;40.47;;;6.38;;
29712;SDS011;16623;53.632;10.016;2023-11-19T11:10:25;29.52;;;4.70;;
29712;SDS011;16623;53.632;10.016;2023-11-19T11:12:51;26.42;;;4.57;;
29712;SDS011;16623;53.632;10.016;2023-11-19T11:15:24;32.70;;;4.57;;
29712;SDS011;16623;53.632;10.016;2023-11-19T11:17:56;25.15;;;4.45;;
29712;SDS011;16623;53.632;10.016;2023-11-19T11:20:28;40.08;;;4.80;;
29712;SDS011;16623;53.632;10.016;2023-11-19T11:31:15;32.63;;;6.10;;
29712;SDS011;16623;53.632;10.016;2023-11-19T11:34:03;37.67;;;4.50;;
29712;SDS011;16623;53.632;10.016;2023-11-19T11:39:34;28.02;;;5.90;;
29712;SDS011;16623;53.632;10.016;2023-11-19T11:45:03;34.47;;;5.20;;
29712;SDS011;16623;53.632;10.016;2023-11-19T11:50:11;32.85;;;5.28;;
29712;SDS011;16623;53.632;10.016;2023-11-19T11:55:28;29.83;;;4.20;;
29712;SDS011;16623;53.632;10.016;2023-11-19T11:57:59;29.25;;;4.88;;
29712;SDS011;16623;53.632;10.016;2023-11-19T12:00:38;29.85;;;7.18;;
29712;SDS011;16623;53.632;10.016;2023-11-19T12:03:05;27.90;;;5.18;;
29712;SDS011;16623;53.632;10.016;2023-11-19T12:05:32;19.73;;;3.63;;
29712;SDS011;16623;53.632;10.016;2023-11-19T12:08:03;29.77;;;6.38;;
29712;SDS011;16623;53.632;10.016;2023-11-19T12:10:32;31.75;;;5.57;;
29712;SDS011;16623;53.632;10.016;2023-11-19T12:13:04;21.95;;;3.90;;
29712;SDS011;16623;53.632;10.016;2023-11-19T12:15:45;27.80;;;5.43;;
29712;SDS011;16623;53.632;10.016;2023-11-19T12:18:19;39.78;;;6.88;;
29712;SDS011;16623;53.632;10.016;2023-11-19T12:20:45;36.60;;;5.68;;
29712;SDS011;16623;53.632;10.016;2023-11-19T12:23:11;32.47;;;5.03;;
29712;SDS011;16623;53.632;10.016;2023-11-19T12:25:38;26.25;;;4.18;;
29712;SDS011;16623;53.632;10.016;2023-11-19T12:28:03;26.40;;;5.40;;
29712;SDS011;16623;53.632;10.016;2023-11-19T12:30:29;14.43;;;3.88;;
29712;SDS011;16623;53.632;10.016;2023-11-19T12:32:55;23.75;;;5.05;;
29712;SDS011;16623;53.632;10.016;2023-11-19T12:35:21;34.10;;;4.78;;
29712;SDS011;16623;53.632;10.016;2023-11-19T12:37:50;27.75;;;5.75;;
29712;SDS011;16623;53.632;10.016;2023-11-19T12:40:19;45.83;;;6.20;;
29712;SDS011;16623;53.632;10.016;2023-11-19T12:42:48;28.58;;;5.40;;
29712;SDS011;16623;53.632;10.016;2023-11-19T12:45:15;40.28;;;5.75;;
29712;SDS011;16623;53.632;10.016;2023-11-19T12:47:42;28.67;;;5.93;;
29712;SDS011;16623;53.632;10.016;2023-11-19T12:50:14;30.20;;;5.30;;
29712;SDS011;16623;53.632;10.016;2023-11-19T12:52:42;23.40;;;4.40;;
29712;SDS011;16623;53.632;10.016;2023-11-19T12:55:27;33.72;;;6.70;;
29712;SDS011;16623;53.632;10.016;2023-11-19T12:57:54;30.15;;;3.78;;
29712;SDS011;16623;53.632;10.016;2023-11-19T13:00:24;33.90;;;4.28;;
29712;SDS011;16623;53.632;10.016;2023-11-19T13:02:52;28.10;;;4.60;;
29712;SDS011;16623;53.632;10.016;2023-11-19T13:05:28;37.75;;;4.85;;
29712;SDS011;16623;53.632;10.016;2023-11-19T13:08:05;28.67;;;4.05;;
29712;SDS011;16623;53.632;10.016;2023-11-19T13:10:33;24.52;;;3.72;;
29712;SDS011;16623;53.632;10.016;2023-11-19T13:13:14;37.45;;;5.53;;
29712;SDS011;16623;53.632;10.016;2023-11-19T13:15:39;25.58;;;4.07;;
29712;SDS011;16623;53.632;10.016;2023-11-19T13:18:05;31.73;;;4.75;;
29712;SDS011;16623;53.632;10.016;2023-11-19T13:20:31;28.15;;;5.95;;
29712;SDS011;16623;53.632;10.016;2023-11-19T13:22:58;27.88;;;4.57;;
29712;SDS011;16623;53.632;10.016;2023-11-19T13:25:25;36.63;;;6.57;;
29712;SDS011;16623;53.632;10.016;2023-11-19T13:27:52;21.00;;;5.00;;
29712;SDS011;16623;53.632;10.016;2023-11-19T13:30:18;23.80;;;4.03;;
29712;SDS011;16623;53.632;10.016;2023-11-19T13:32:44;22.63;;;5.68;;
29712;SDS011;16623;53.632;10.016;2023-11-19T13:35:14;27.27;;;4.00;;
29712;SDS011;16623;53.632;10.016;2023-11-19T13:37:43;32.60;;;5.53;;
29712;SDS011;16623;53.632;10.016;2023-11-19T13:40:10;21.95;;;4.70;;
29712;SDS011;16623;53.632;10.016;2023-11-19T13:42:38;24.77;;;3.90;;
29712;SDS011;16623;53.632;10.016;2023-11-19T13:45:10;38.70;;;5.35;;
29712;SDS011;16623;53.632;10.016;2023-11-19T13:47:41;33.78;;;5.85;;
29712;SDS011;16623;53.632;10.016;2023-11-19T13:50:11;28.30;;;4.28;;
29712;SDS011;16623;53.632;10.016;2023-11-19T13:52:39;29.73;;;5.55;;
29712;SDS011;16623;53.632;10.016;2023-11-19T13:55:07;35.40;;;4.75;;
29712;SDS011;16623;53.632;10.016;2023-11-19T13:57:34;34.17;;;5.13;;
29712;SDS011;16623;53.632;10.016;2023-11-19T14:00:01;30.00;;;4.95;;
29712;SDS011;16623;53.632;10.016;2023-11-19T14:02:31;22.30;;;4.20;;
29712;SDS011;16623;53.632;10.016;2023-11-19T14:04:56;26.25;;;6.05;;
29712;SDS011;16623;53.632;10.016;2023-11-19T14:07:22;32.03;;;4.53;;
29712;SDS011;16623;53.632;10.016;2023-11-19T14:09:48;23.83;;;3.72;;
29712;SDS011;16623;53.632;10.016;2023-11-19T14:12:13;32.13;;;4.55;;
29712;SDS011;16623;53.632;10.016;2023-11-19T14:14:39;24.75;;;3.45;;
29712;SDS011;16623;53.632;10.016;2023-11-19T14:17:04;30.33;;;5.55;;
29712;SDS011;16623;53.632;10.016;2023-11-19T14:19:30;25.42;;;5.18;;
29712;SDS011;16623;53.632;10.016;2023-11-19T14:21:56;30.70;;;5.07;;
29712;SDS011;16623;53.632;10.016;2023-11-19T14:24:21;31.95;;;4.93;;
29712;SDS011;16623;53.632;10.016;2023-11-19T14:26:47;28.38;;;6.32;;
29712;SDS011;16623;53.632;10.016;2023-11-19T14:29:14;25.45;;;4.55;;
29712;SDS011;16623;53.632;10.016;2023-11-19T14:31:40;32.15;;;5.03;;
29712;SDS011;16623;53.632;10.016;2023-11-19T14:34:06;17.83;;;4.10;;
29712;SDS011;16623;53.632;10.016;2023-11-19T14:36:31;29.55;;;4.28;;
29712;SDS011;16623;53.632;10.016;2023-11-19T14:38:57;24.08;;;5.97;;
29712;SDS011;16623;53.632;10.016;2023-11-19T14:41:23;27.48;;;5.60;;
29712;SDS011;16623;53.632;10.016;2023-11-19T14:43:49;32.40;;;4.45;;
29712;SDS011;16623;53.632;10.016;2023-11-19T14:46:15;9.93;;;2.15;;
29712;SDS011;16623;53.632;10.016;2023-11-19T14:48:41;14.65;;;2.20;;
29712;SDS011;16623;53.632;10.016;2023-11-19T14:51:06;10.10;;;2.15;;